Time;durP1;ratioP1;P1;durP2;ratioP2;P2;SDS_P1;SDS_P2;PMS_P1;PMS_P2;Temp;Humidity;BMP_temperature;BMP_pressure;BME280_temperature;BME280_humidity;BME280_pressure;Samples;Min_cycle;Max_cycle;Signal;HPM_P1;HPM_P2
2023/12/21 00:01:55;;;;;;;13.18;4.18;;;9.60;99.90;;;;;;5053212;28;20132;-61
2023/12/21 00:04:20;;;;;;;7.97;3.13;;;9.70;99.90;;;;;;5036968;28;20122;-61
2023/12/21 00:06:46;;;;;;;10.52;3.50;;;9.60;99.90;;;;;;5036116;28;20040;-61
2023/12/21 00:09:12;;;;;;;14.30;2.90;;;9.70;99.90;;;;;;5036650;28;20079;-61
2023/12/21 00:11:38;;;;;;;17.52;4.80;;;9.60;99.90;;;;;;5036821;28;20124;-61
2023/12/21 00:14:03;;;;;;;14.93;4.18;;;9.60;99.90;;;;;;5019730;28;20129;-61
2023/12/21 00:16:29;;;;;;;19.33;4.28;;;9.70;99.90;;;;;;5036815;28;20438;-61
2023/12/21 00:18:54;;;;;;;14.02;3.80;;;9.60;99.90;;;;;;5036909;28;20048;-61
2023/12/21 00:21:20;;;;;;;14.43;4.10;;;9.70;99.90;;;;;;5053740;28;20136;-61
2023/12/21 00:23:46;;;;;;;11.88;3.72;;;9.70;99.90;;;;;;5036537;28;20115;-61
2023/12/21 00:26:12;;;;;;;20.17;4.90;;;9.70;99.90;;;;;;5054377;28;20037;-61
2023/12/21 00:28:37;;;;;;;18.13;4.88;;;9.70;99.90;;;;;;5035057;28;20039;-61
2023/12/21 00:31:03;;;;;;;15.30;5.72;;;9.70;99.90;;;;;;5036472;28;20053;-61
2023/12/21 00:33:29;;;;;;;15.45;5.07;;;9.70;99.90;;;;;;5036656;28;20047;-61
2023/12/21 00:35:55;;;;;;;18.60;4.05;;;9.70;99.90;;;;;;5053740;28;20098;-61
2023/12/21 00:38:20;;;;;;;15.82;3.35;;;9.70;99.90;;;;;;5036226;28;20098;-61
2023/12/21 00:40:46;;;;;;;17.13;4.88;;;9.70;99.90;;;;;;5036118;28;20517;-61
2023/12/21 00:43:12;;;;;;;16.48;4.00;;;9.70;99.90;;;;;;5035478;28;20049;-61
2023/12/21 00:45:37;;;;;;;12.25;3.88;;;9.70;99.90;;;;;;5019845;28;20044;-61
2023/12/21 00:48:03;;;;;;;12.75;4.72;;;9.70;99.90;;;;;;5035772;28;20436;-60
2023/12/21 00:50:29;;;;;;;15.45;4.95;;;9.70;99.90;;;;;;5027992;28;20049;-61
2023/12/21 00:52:55;;;;;;;14.57;4.05;;;9.70;99.90;;;;;;5000217;28;20100;-61
2023/12/21 00:55:20;;;;;;;15.63;4.38;;;9.70;99.90;;;;;;5033335;28;20485;-61
2023/12/21 00:57:46;;;;;;;13.25;3.35;;;9.70;99.90;;;;;;5016088;28;20041;-61
2023/12/21 01:00:12;;;;;;;17.65;3.67;;;9.70;99.90;;;;;;5015973;28;20041;-61
2023/12/21 01:02:38;;;;;;;11.48;3.03;;;9.70;99.90;;;;;;5021895;28;20037;-61
2023/12/21 01:05:04;;;;;;;15.00;3.67;;;9.70;99.90;;;;;;5036157;28;20084;-61
2023/12/21 01:07:30;;;;;;;14.18;3.60;;;9.70;99.90;;;;;;5034137;28;20479;-61
2023/12/21 01:09:55;;;;;;;12.57;3.47;;;9.70;99.90;;;;;;5044123;28;20037;-61
2023/12/21 01:12:21;;;;;;;13.88;3.05;;;9.80;99.90;;;;;;5016119;28;20395;-61
2023/12/21 01:14:47;;;;;;;13.80;3.28;;;9.70;99.90;;;;;;5016066;28;20072;-61
2023/12/21 01:17:12;;;;;;;10.73;3.38;;;9.70;99.90;;;;;;5015207;28;20048;-61
2023/12/21 01:19:38;;;;;;;19.35;4.95;;;9.70;99.90;;;;;;4999978;28;20084;-61
2023/12/21 01:22:03;;;;;;;12.40;4.30;;;9.80;99.90;;;;;;5035572;28;20090;-61
2023/12/21 01:24:29;;;;;;;11.30;3.63;;;9.70;99.90;;;;;;5034212;28;20051;-61
2023/12/21 01:26:55;;;;;;;16.15;4.38;;;9.80;99.90;;;;;;5052097;28;20043;-61
2023/12/21 01:29:20;;;;;;;15.35;3.75;;;9.80;99.90;;;;;;5053141;28;20048;-61
2023/12/21 01:31:46;;;;;;;15.98;3.83;;;9.70;99.90;;;;;;5034442;28;20049;-61
2023/12/21 01:34:13;;;;;;;13.25;4.85;;;9.70;99.90;;;;;;5051746;28;20048;-61
2023/12/21 01:36:39;;;;;;;13.98;4.10;;;9.70;99.90;;;;;;5034975;28;20121;-61
2023/12/21 01:39:06;;;;;;;15.73;3.53;;;9.60;99.90;;;;;;5029834;28;20124;-61
2023/12/21 01:41:32;;;;;;;18.02;4.10;;;9.60;99.90;;;;;;4998309;28;20048;-61
2023/12/21 01:43:58;;;;;;;20.02;5.05;;;9.60;99.90;;;;;;5033044;28;20375;-61
2023/12/21 01:46:24;;;;;;;13.35;3.63;;;9.70;99.90;;;;;;5032119;28;20063;-61
2023/12/21 01:48:50;;;;;;;11.32;3.35;;;9.60;99.90;;;;;;5015266;28;20050;-61
2023/12/21 01:51:18;;;;;;;15.30;4.47;;;9.60;99.90;;;;;;5000841;28;20048;-61
2023/12/21 01:53:44;;;;;;;15.13;3.40;;;9.60;99.90;;;;;;5018649;28;20064;-61
2023/12/21 01:56:10;;;;;;;11.68;3.47;;;9.60;99.90;;;;;;5034558;28;20040;-61
2023/12/21 01:58:36;;;;;;;11.10;3.65;;;9.60;99.90;;;;;;5033963;28;20053;-61
2023/12/21 02:01:04;;;;;;;11.32;3.63;;;9.60;99.90;;;;;;5051491;28;20123;-61
2023/12/21 02:03:31;;;;;;;11.02;4.05;;;9.60;99.90;;;;;;5050892;28;20053;-61
2023/12/21 02:05:56;;;;;;;11.13;3.45;;;9.60;99.90;;;;;;5034112;28;20129;-61
2023/12/21 02:08:26;;;;;;;15.32;3.63;;;9.50;99.90;;;;;;5037556;28;20132;-61
2023/12/21 02:10:59;;;;;;;15.40;4.20;;;9.60;99.90;;;;;;5034437;28;20052;-61
2023/12/21 02:13:24;;;;;;;12.43;3.95;;;9.60;99.90;;;;;;5000560;28;20053;-61
2023/12/21 02:15:53;;;;;;;12.35;3.35;;;9.60;99.90;;;;;;4998409;28;20068;-61
2023/12/21 02:18:20;;;;;;;16.98;3.28;;;9.60;99.90;;;;;;5014233;28;20124;-61
2023/12/21 02:20:46;;;;;;;14.93;4.00;;;9.50;99.90;;;;;;5031627;28;20095;-61
2023/12/21 02:23:16;;;;;;;10.95;3.53;;;9.50;99.90;;;;;;5014708;28;20073;-61
2023/12/21 02:25:42;;;;;;;13.23;3.65;;;9.50;99.90;;;;;;5014824;28;20052;-60
2023/12/21 02:28:08;;;;;;;12.55;3.05;;;9.50;99.90;;;;;;5014199;28;20041;-61
2023/12/21 02:30:34;;;;;;;15.23;3.63;;;9.50;99.90;;;;;;5014622;28;20088;-61
2023/12/21 02:32:59;;;;;;;14.30;3.60;;;9.50;99.90;;;;;;5014703;28;20466;-61
2023/12/21 02:35:25;;;;;;;10.80;3.38;;;9.50;99.90;;;;;;5030149;28;20120;-61
2023/12/21 02:37:50;;;;;;;14.07;3.33;;;9.50;99.90;;;;;;4997948;28;20073;-61
2023/12/21 02:40:16;;;;;;;17.90;6.03;;;9.50;99.90;;;;;;5030650;28;20073;-61
2023/12/21 02:42:42;;;;;;;14.98;3.35;;;9.50;99.90;;;;;;5029906;28;20123;-61
2023/12/21 02:45:08;;;;;;;16.27;3.60;;;9.50;99.90;;;;;;5014567;28;20037;-61
2023/12/21 02:47:33;;;;;;;12.85;3.72;;;9.50;99.90;;;;;;4997438;28;20044;-61
2023/12/21 02:49:59;;;;;;;13.63;4.15;;;9.50;99.90;;;;;;5014633;28;20077;-61
2023/12/21 02:52:24;;;;;;;11.43;3.22;;;9.50;99.90;;;;;;5024881;28;20048;-61
2023/12/21 02:54:50;;;;;;;14.43;5.32;;;9.50;99.90;;;;;;5049770;28;20397;-61
2023/12/21 02:57:16;;;;;;;11.43;3.92;;;9.50;99.90;;;;;;5050481;28;20040;-61
2023/12/21 02:59:44;;;;;;;9.25;3.83;;;9.40;99.90;;;;;;5017734;28;20090;-61
2023/12/21 03:02:10;;;;;;;21.27;4.22;;;9.50;99.90;;;;;;5016482;28;20577;-61
2023/12/21 03:04:36;;;;;;;15.48;3.70;;;9.40;99.90;;;;;;5033980;28;20124;-61
2023/12/21 03:07:02;;;;;;;13.30;3.28;;;9.50;99.90;;;;;;5049166;28;20067;-61
2023/12/21 03:09:28;;;;;;;13.35;4.53;;;9.40;99.90;;;;;;5032922;28;20057;-61
2023/12/21 03:11:54;;;;;;;16.15;4.00;;;9.40;99.90;;;;;;5033871;28;20056;-61
2023/12/21 03:14:22;;;;;;;15.55;3.25;;;9.50;99.90;;;;;;5033787;28;20139;-61
2023/12/21 03:16:49;;;;;;;18.65;3.92;;;9.40;99.90;;;;;;5032886;28;20049;-61
2023/12/21 03:19:14;;;;;;;10.85;3.47;;;9.50;99.90;;;;;;5018192;28;20171;-61
2023/12/21 03:21:40;;;;;;;17.73;4.28;;;9.50;99.90;;;;;;5013981;28;20120;-61
2023/12/21 03:24:06;;;;;;;14.23;4.07;;;9.50;99.90;;;;;;5013595;28;20041;-61
2023/12/21 03:26:32;;;;;;;15.93;4.95;;;9.50;99.90;;;;;;5032256;28;20044;-61
2023/12/21 03:28:57;;;;;;;9.55;3.10;;;9.60;99.90;;;;;;5050538;28;20509;-61
2023/12/21 03:31:23;;;;;;;11.40;4.00;;;9.50;99.90;;;;;;5035469;28;20049;-61
2023/12/21 03:33:49;;;;;;;12.55;3.58;;;9.50;99.90;;;;;;5021073;28;20044;-61
2023/12/21 03:36:15;;;;;;;13.90;3.40;;;9.60;99.90;;;;;;5037403;28;20103;-61
2023/12/21 03:38:40;;;;;;;12.85;3.65;;;9.60;99.90;;;;;;5023701;28;20112;-61
2023/12/21 03:41:06;;;;;;;12.77;3.92;;;9.60;99.90;;;;;;5017665;28;20491;-61
2023/12/21 03:43:32;;;;;;;13.80;4.05;;;9.60;99.90;;;;;;5017145;28;20064;-61
2023/12/21 03:45:57;;;;;;;14.80;3.60;;;9.60;99.90;;;;;;5017001;28;20041;-61
2023/12/21 03:48:23;;;;;;;11.65;4.30;;;9.70;99.90;;;;;;5017721;28;20044;-61
2023/12/21 03:50:49;;;;;;;15.00;4.10;;;9.60;99.90;;;;;;5034615;28;20087;-61
2023/12/21 03:53:16;;;;;;;11.75;3.40;;;9.60;99.90;;;;;;5000920;28;20441;-61
2023/12/21 03:55:42;;;;;;;13.60;3.42;;;9.60;99.90;;;;;;5017357;28;20486;-61
2023/12/21 03:58:08;;;;;;;14.05;4.78;;;9.60;99.90;;;;;;5016612;28;20491;-61
2023/12/21 04:00:34;;;;;;;7.07;2.67;;;9.60;99.90;;;;;;5017434;28;20053;-61
2023/12/21 04:03:01;;;;;;;9.88;4.07;;;9.60;99.90;;;;;;5033649;28;20049;-61
2023/12/21 04:05:27;;;;;;;16.02;3.83;;;9.70;99.90;;;;;;5038739;28;20041;-61
2023/12/21 04:07:52;;;;;;;13.45;3.20;;;9.70;99.90;;;;;;5050439;28;20047;-61
2023/12/21 04:10:18;;;;;;;14.05;3.63;;;9.60;99.90;;;;;;5037287;28;20045;-61
2023/12/21 04:12:44;;;;;;;12.02;3.38;;;9.70;99.90;;;;;;5036098;28;20041;-61
2023/12/21 04:15:11;;;;;;;15.60;4.03;;;9.70;99.90;;;;;;5032155;28;20045;-61
2023/12/21 04:17:37;;;;;;;14.75;3.53;;;9.70;99.90;;;;;;5021490;28;20368;-61
2023/12/21 04:20:04;;;;;;;15.50;3.05;;;9.70;99.90;;;;;;4999888;28;20049;-61
2023/12/21 04:22:29;;;;;;;13.85;3.97;;;9.80;99.90;;;;;;5033124;28;20044;-61
2023/12/21 04:24:55;;;;;;;12.88;3.92;;;9.70;99.90;;;;;;5033698;28;20413;-61
2023/12/21 04:27:21;;;;;;;15.23;3.60;;;9.70;99.90;;;;;;5016010;28;20594;-60
2023/12/21 04:29:46;;;;;;;11.88;4.15;;;9.70;99.90;;;;;;5033011;28;20041;-61
2023/12/21 04:32:12;;;;;;;10.48;3.60;;;9.80;99.90;;;;;;5032977;28;20034;-61
2023/12/21 04:34:38;;;;;;;18.65;4.35;;;9.80;99.90;;;;;;5016234;28;20386;-61
2023/12/21 04:37:03;;;;;;;12.10;3.50;;;9.70;99.90;;;;;;5035001;28;20037;-61
2023/12/21 04:39:29;;;;;;;14.73;3.40;;;9.70;99.90;;;;;;5021114;28;20046;-61
2023/12/21 04:41:55;;;;;;;9.82;3.83;;;9.60;99.90;;;;;;5022482;28;20033;-61
2023/12/21 04:44:21;;;;;;;12.23;3.38;;;9.60;99.90;;;;;;5036077;28;20904;-61
2023/12/21 04:46:48;;;;;;;13.52;4.07;;;9.60;99.90;;;;;;5019369;28;20041;-61
2023/12/21 04:49:16;;;;;;;14.48;4.07;;;9.50;99.90;;;;;;5035592;28;20510;-61
2023/12/21 04:51:43;;;;;;;15.50;3.10;;;9.50;99.90;;;;;;5036451;28;20044;-61
2023/12/21 04:54:08;;;;;;;15.27;4.32;;;9.50;99.90;;;;;;5035454;28;20052;-61
2023/12/21 04:56:40;;;;;;;16.48;4.13;;;9.50;99.90;;;;;;5036874;28;20044;-61
2023/12/21 04:59:05;;;;;;;15.50;3.95;;;9.50;99.90;;;;;;5035953;28;20045;-61
2023/12/21 05:01:31;;;;;;;9.65;3.35;;;9.50;99.90;;;;;;5033784;28;20048;-61
2023/12/21 05:03:57;;;;;;;9.60;3.42;;;9.50;99.90;;;;;;5036216;28;20045;-61
2023/12/21 05:06:22;;;;;;;11.95;3.78;;;9.50;99.90;;;;;;5035808;28;20044;-61
2023/12/21 05:08:48;;;;;;;19.83;5.68;;;9.60;99.90;;;;;;5015413;28;20033;-61
2023/12/21 05:11:14;;;;;;;15.60;4.38;;;9.50;99.90;;;;;;5016809;28;20147;-61
2023/12/21 05:13:39;;;;;;;12.32;3.22;;;9.50;99.90;;;;;;5035694;28;20032;-60
2023/12/21 05:16:05;;;;;;;9.10;3.15;;;9.60;99.90;;;;;;5052902;28;20106;-61
2023/12/21 05:18:31;;;;;;;8.70;3.22;;;9.60;99.90;;;;;;5035762;28;20036;-61
2023/12/21 05:20:56;;;;;;;14.90;4.50;;;9.60;99.90;;;;;;5019622;28;20568;-61
2023/12/21 05:23:22;;;;;;;14.60;3.08;;;9.60;99.90;;;;;;5034926;28;20497;-61
2023/12/21 05:25:48;;;;;;;14.20;3.33;;;9.70;99.90;;;;;;5035664;28;20398;-60
2023/12/21 05:28:14;;;;;;;17.63;4.35;;;9.70;99.90;;;;;;5019126;28;20041;-61
2023/12/21 05:30:40;;;;;;;12.85;3.67;;;9.70;99.90;;;;;;5034457;28;20521;-60
2023/12/21 05:33:05;;;;;;;9.90;2.70;;;9.80;99.90;;;;;;5009771;28;20047;-61
2023/12/21 05:35:31;;;;;;;17.17;3.40;;;9.80;99.90;;;;;;5015870;28;20049;-61
2023/12/21 05:37:57;;;;;;;18.80;4.28;;;9.80;99.90;;;;;;5015482;28;20072;-61
2023/12/21 05:40:23;;;;;;;8.00;2.53;;;9.80;99.90;;;;;;4999498;28;20113;-61
2023/12/21 05:42:48;;;;;;;12.70;3.67;;;9.80;99.90;;;;;;4998819;28;20091;-61
2023/12/21 05:45:14;;;;;;;10.27;2.95;;;9.70;99.90;;;;;;5015021;28;20041;-61
2023/12/21 05:47:40;;;;;;;15.23;3.05;;;9.80;99.90;;;;;;5017379;28;20041;-61
2023/12/21 05:50:06;;;;;;;10.25;3.70;;;9.80;99.90;;;;;;5035093;28;20045;-61
2023/12/21 05:52:32;;;;;;;10.32;2.83;;;9.90;99.90;;;;;;5034113;28;20060;-61
2023/12/21 05:54:57;;;;;;;10.45;3.60;;;9.90;99.90;;;;;;5035412;28;20481;-61
2023/12/21 05:57:24;;;;;;;12.95;3.22;;;9.90;99.90;;;;;;5034835;28;20045;-61
2023/12/21 05:59:49;;;;;;;10.32;2.67;;;9.90;99.90;;;;;;5034343;28;20048;-60
2023/12/21 06:02:15;;;;;;;9.13;2.78;;;9.90;99.90;;;;;;5033733;28;20410;-61
2023/12/21 06:04:41;;;;;;;9.18;3.35;;;10.00;99.90;;;;;;5014524;28;20368;-61
2023/12/21 06:07:07;;;;;;;11.95;2.92;;;10.00;99.90;;;;;;5015284;28;20037;-61
2023/12/21 06:09:33;;;;;;;9.77;2.95;;;10.00;99.90;;;;;;5014760;28;20038;-61
2023/12/21 06:11:58;;;;;;;7.97;2.70;;;10.00;99.90;;;;;;5014504;28;20045;-61
2023/12/21 06:14:24;;;;;;;12.50;3.00;;;10.00;99.90;;;;;;4998307;28;20406;-61
2023/12/21 06:16:50;;;;;;;17.92;3.30;;;10.00;99.90;;;;;;5015185;28;20048;-60
2023/12/21 06:19:15;;;;;;;7.63;2.90;;;9.90;99.90;;;;;;5030419;28;20049;-61
2023/12/21 06:21:41;;;;;;;11.65;3.55;;;9.90;99.90;;;;;;5031204;28;20042;-61
2023/12/21 06:24:07;;;;;;;10.95;2.65;;;9.90;99.90;;;;;;5031353;28;20041;-61
2023/12/21 06:26:37;;;;;;;8.48;2.65;;;9.80;99.90;;;;;;5033130;28;20040;-61
2023/12/21 06:29:03;;;;;;;10.07;3.90;;;9.80;99.90;;;;;;5034670;28;20059;-61
2023/12/21 06:31:29;;;;;;;10.00;3.13;;;9.80;99.90;;;;;;5050497;28;20456;-61
2023/12/21 06:33:54;;;;;;;10.85;3.00;;;9.70;99.90;;;;;;5051708;28;20044;-61
2023/12/21 06:36:20;;;;;;;10.13;3.15;;;9.70;99.90;;;;;;5018033;28;20037;-61
2023/12/21 06:38:46;;;;;;;7.72;2.35;;;9.70;99.90;;;;;;5034867;28;20052;-61
2023/12/21 06:41:14;;;;;;;9.63;2.97;;;9.60;99.90;;;;;;5033533;28;20040;-61
2023/12/21 06:43:39;;;;;;;9.45;2.85;;;9.60;99.90;;;;;;5033290;28;20052;-61
2023/12/21 06:46:12;;;;;;;11.27;2.88;;;9.60;99.90;;;;;;5035031;28;20041;-61
2023/12/21 06:48:38;;;;;;;8.63;3.33;;;9.50;99.90;;;;;;5033432;28;20043;-60
2023/12/21 06:51:04;;;;;;;9.20;2.80;;;9.50;99.90;;;;;;5029356;28;20466;-60
2023/12/21 06:53:29;;;;;;;10.48;3.15;;;9.50;99.90;;;;;;5014139;28;20132;-60
2023/12/21 06:55:55;;;;;;;7.55;2.85;;;9.50;99.90;;;;;;4997405;28;20037;-60
2023/12/21 06:58:21;;;;;;;9.93;2.45;;;9.50;99.90;;;;;;4997736;28;20041;-60
2023/12/21 07:00:47;;;;;;;8.50;2.45;;;9.50;99.90;;;;;;5013802;28;20049;-60
2023/12/21 07:03:13;;;;;;;8.65;2.03;;;9.50;99.90;;;;;;4998042;28;20057;-60
2023/12/21 07:05:38;;;;;;;10.15;2.58;;;9.50;99.90;;;;;;5016009;28;20513;-60
2023/12/21 07:08:04;;;;;;;7.70;2.08;;;9.50;99.90;;;;;;5039570;28;20087;-60
2023/12/21 07:10:30;;;;;;;9.85;2.45;;;9.50;99.90;;;;;;5017857;28;20126;-60
2023/12/21 07:12:56;;;;;;;9.30;2.60;;;9.50;99.90;;;;;;5038061;28;20119;-60
2023/12/21 07:15:21;;;;;;;7.43;2.38;;;9.50;99.90;;;;;;5037508;28;20433;-60
2023/12/21 07:17:47;;;;;;;6.35;2.33;;;9.50;99.90;;;;;;5038448;28;20045;-60
2023/12/21 07:20:13;;;;;;;14.60;4.00;;;9.50;99.90;;;;;;5037998;28;20073;-60
2023/12/21 07:22:38;;;;;;;10.05;3.65;;;9.50;99.90;;;;;;5037152;28;20041;-60
2023/12/21 07:25:04;;;;;;;11.90;3.65;;;9.50;99.90;;;;;;5038042;28;20099;-60
2023/12/21 07:27:30;;;;;;;12.50;3.75;;;9.50;99.90;;;;;;5037008;28;20048;-60
2023/12/21 07:29:56;;;;;;;14.20;4.35;;;9.50;99.90;;;;;;5020872;28;20037;-60
2023/12/21 07:32:21;;;;;;;12.88;3.35;;;9.50;99.90;;;;;;5035318;28;20037;-60
2023/12/21 07:34:47;;;;;;;12.05;3.10;;;9.50;99.90;;;;;;5037227;28;20112;-60
2023/12/21 07:37:16;;;;;;;11.98;3.15;;;9.50;99.90;;;;;;5035612;28;20067;-60
2023/12/21 07:39:42;;;;;;;11.65;4.68;;;9.50;99.90;;;;;;5036687;28;20041;-60
2023/12/21 07:42:08;;;;;;;14.02;2.83;;;9.50;99.90;;;;;;5033872;28;20128;-60
2023/12/21 07:44:35;;;;;;;10.30;3.03;;;9.60;99.90;;;;;;5051937;28;20040;-60
2023/12/21 07:47:02;;;;;;;11.13;2.92;;;9.60;99.90;;;;;;5038211;28;20045;-60
2023/12/21 07:49:28;;;;;;;10.43;3.28;;;9.60;99.90;;;;;;5037158;28;20498;-60
2023/12/21 07:51:54;;;;;;;8.88;3.03;;;9.60;99.90;;;;;;5020165;28;20055;-60
2023/12/21 07:54:19;;;;;;;10.90;3.45;;;9.70;99.90;;;;;;5020763;28;20056;-60
2023/12/21 07:56:45;;;;;;;9.63;2.75;;;9.70;99.90;;;;;;5032723;28;20044;-60
2023/12/21 07:59:11;;;;;;;13.88;3.67;;;9.70;99.90;;;;;;5014256;28;20402;-60
2023/12/21 08:01:37;;;;;;;11.40;4.07;;;9.70;99.90;;;;;;5032481;28;20046;-60
2023/12/21 08:04:02;;;;;;;12.93;4.70;;;9.80;99.90;;;;;;5003963;28;20168;-60
2023/12/21 08:06:28;;;;;;;15.23;4.05;;;9.80;99.90;;;;;;5051235;28;20045;-60
2023/12/21 08:08:54;;;;;;;12.25;3.35;;;9.90;99.90;;;;;;5050793;28;20044;-60
2023/12/21 08:11:22;;;;;;;15.65;3.78;;;9.90;99.90;;;;;;5050572;28;20402;-60
2023/12/21 08:13:50;;;;;;;10.85;3.83;;;9.90;99.90;;;;;;5042048;28;20056;-60
2023/12/21 08:16:17;;;;;;;16.95;4.35;;;10.00;99.90;;;;;;5034146;28;20056;-60
2023/12/21 08:18:42;;;;;;;15.20;4.72;;;10.00;99.90;;;;;;5030148;28;20046;-60
2023/12/21 08:21:08;;;;;;;11.88;4.35;;;10.00;99.90;;;;;;5015101;28;20041;-60
2023/12/21 08:23:34;;;;;;;14.75;4.45;;;10.00;99.90;;;;;;5015746;28;20534;-60
2023/12/21 08:25:59;;;;;;;15.43;3.72;;;10.10;99.90;;;;;;5030500;28;20033;-60
2023/12/21 08:28:29;;;;;;;15.07;4.68;;;10.10;99.90;;;;;;5031206;28;20085;-60
2023/12/21 08:30:54;;;;;;;10.10;3.60;;;10.10;99.90;;;;;;5014514;28;20057;-60
2023/12/21 08:33:20;;;;;;;15.35;4.25;;;10.20;99.90;;;;;;5013359;28;20052;-60
2023/12/21 08:35:46;;;;;;;15.57;4.53;;;10.20;99.90;;;;;;5032288;28;20071;-60
2023/12/21 08:38:12;;;;;;;15.35;3.95;;;10.20;99.90;;;;;;4997778;28;20048;-60
2023/12/21 08:40:38;;;;;;;12.40;3.78;;;10.10;99.90;;;;;;5030113;28;20030;-60
2023/12/21 08:43:03;;;;;;;17.35;5.15;;;10.20;99.90;;;;;;5033789;28;20040;-60
2023/12/21 08:45:29;;;;;;;19.13;3.92;;;10.20;99.90;;;;;;5031592;28;20394;-60
2023/12/21 08:47:56;;;;;;;12.75;3.60;;;10.20;99.90;;;;;;5049266;28;20512;-60
2023/12/21 08:50:21;;;;;;;14.35;4.32;;;10.10;99.90;;;;;;5033948;28;20055;-60
2023/12/21 08:52:48;;;;;;;17.35;4.45;;;10.20;99.90;;;;;;5051538;28;20041;-60
2023/12/21 08:55:13;;;;;;;9.98;4.05;;;10.10;99.90;;;;;;5032648;28;20087;-60
2023/12/21 08:57:39;;;;;;;14.15;4.00;;;10.20;99.90;;;;;;5031605;28;20077;-61
2023/12/21 09:00:06;;;;;;;16.25;4.30;;;10.20;99.90;;;;;;5033797;28;20040;-60
2023/12/21 09:02:33;;;;;;;13.32;4.05;;;10.20;99.90;;;;;;5032175;28;20060;-60
2023/12/21 09:04:59;;;;;;;19.77;4.45;;;10.30;99.90;;;;;;5033626;28;20045;-60
2023/12/21 09:07:25;;;;;;;14.18;4.88;;;10.30;99.90;;;;;;5032832;28;20048;-60
2023/12/21 09:09:51;;;;;;;16.63;4.32;;;10.30;99.90;;;;;;5047912;28;20057;-60
2023/12/21 09:12:18;;;;;;;10.20;3.65;;;10.40;99.90;;;;;;5033546;28;20394;-60
2023/12/21 09:14:45;;;;;;;16.88;2.97;;;10.40;99.90;;;;;;5032883;28;20055;-60
2023/12/21 09:17:10;;;;;;;13.07;3.38;;;10.40;99.90;;;;;;5031554;28;20029;-60
2023/12/21 09:19:36;;;;;;;16.15;3.97;;;10.40;99.90;;;;;;5031241;28;20043;-59
2023/12/21 09:22:02;;;;;;;11.73;3.90;;;10.40;99.90;;;;;;5032093;28;20494;-60
2023/12/21 09:24:27;;;;;;;12.55;3.70;;;10.50;99.90;;;;;;5017075;28;20053;-60
2023/12/21 09:26:53;;;;;;;14.30;3.13;;;10.50;99.90;;;;;;5035254;28;20037;-60
2023/12/21 09:29:19;;;;;;;14.85;4.22;;;10.50;99.90;;;;;;5032940;28;20052;-60
2023/12/21 09:31:44;;;;;;;24.42;4.53;;;10.50;99.90;;;;;;5024244;28;20045;-60
2023/12/21 09:34:11;;;;;;;17.38;3.47;;;10.60;99.90;;;;;;5018915;28;20405;-61
2023/12/21 09:36:36;;;;;;;14.45;3.70;;;10.60;99.90;;;;;;5029560;28;20493;-60
2023/12/21 09:39:03;;;;;;;12.77;3.17;;;10.70;99.90;;;;;;5035879;28;20041;-61
2023/12/21 09:41:29;;;;;;;14.80;3.00;;;10.70;99.90;;;;;;5001935;28;20037;-60
2023/12/21 09:43:57;;;;;;;11.48;3.65;;;10.80;99.90;;;;;;5002374;28;20037;-61
2023/12/21 09:46:25;;;;;;;19.95;3.42;;;10.80;99.90;;;;;;5027132;28;20033;-61
2023/12/21 09:48:55;;;;;;;12.18;3.15;;;10.80;99.90;;;;;;5035033;28;20049;-60
2023/12/21 09:51:22;;;;;;;11.20;2.90;;;10.80;99.90;;;;;;5033769;28;20045;-61
2023/12/21 09:53:49;;;;;;;12.63;3.38;;;10.80;99.90;;;;;;5035823;28;20142;-61
2023/12/21 09:56:17;;;;;;;14.38;3.15;;;10.70;99.90;;;;;;5035565;28;20409;-61
2023/12/21 09:58:44;;;;;;;12.77;3.60;;;10.80;99.90;;;;;;5029767;28;20137;-60
2023/12/21 10:01:10;;;;;;;11.10;3.40;;;10.80;99.90;;;;;;5051559;28;20119;-60
2023/12/21 10:03:36;;;;;;;14.57;4.88;;;10.80;99.90;;;;;;5034227;28;20140;-61
2023/12/21 10:06:04;;;;;;;11.38;4.47;;;10.70;99.90;;;;;;5018070;28;20037;-60
2023/12/21 10:08:33;;;;;;;22.65;3.17;;;10.70;99.90;;;;;;5034804;28;20044;-60
2023/12/21 10:11:02;;;;;;;15.30;4.68;;;10.80;99.90;;;;;;5034385;28;20788;-60
2023/12/21 10:13:28;;;;;;;9.95;2.83;;;10.90;99.90;;;;;;5018657;28;20492;-61
2023/12/21 10:15:58;;;;;;;12.05;2.63;;;11.00;99.90;;;;;;5034498;28;20074;-61
2023/12/21 10:18:24;;;;;;;14.18;3.53;;;11.00;99.90;;;;;;5017221;28;20103;-61
2023/12/21 10:20:49;;;;;;;13.88;2.55;;;11.10;99.90;;;;;;5017888;28;20505;-60
2023/12/21 10:23:15;;;;;;;16.27;3.30;;;11.10;99.90;;;;;;5034612;28;20124;-61
2023/12/21 10:25:46;;;;;;;16.80;3.58;;;11.10;99.90;;;;;;5050475;28;20215;-61
2023/12/21 10:28:11;;;;;;;10.93;3.83;;;11.20;99.90;;;;;;5034404;28;20045;-61
2023/12/21 10:30:37;;;;;;;13.73;3.20;;;11.20;99.90;;;;;;5050752;28;20040;-61
2023/12/21 10:33:03;;;;;;;13.68;3.60;;;11.20;99.90;;;;;;5017151;28;20094;-61
2023/12/21 10:35:29;;;;;;;17.17;3.45;;;11.20;99.90;;;;;;5034215;28;20454;-61
2023/12/21 10:37:55;;;;;;;13.98;3.83;;;11.20;99.90;;;;;;5027590;28;20069;-61
2023/12/21 10:40:24;;;;;;;13.27;3.45;;;11.20;99.90;;;;;;5014192;28;20492;-62
2023/12/21 10:42:51;;;;;;;12.68;3.40;;;11.20;99.90;;;;;;4998215;28;20092;-61
2023/12/21 10:45:21;;;;;;;14.70;3.08;;;11.20;99.90;;;;;;5028604;28;20041;-62
2023/12/21 10:47:52;;;;;;;10.07;3.55;;;11.20;99.90;;;;;;5030998;28;20037;-61
2023/12/21 10:50:19;;;;;;;11.85;4.93;;;11.20;99.90;;;;;;5050398;28;20117;-61
2023/12/21 10:52:46;;;;;;;15.63;5.55;;;11.20;99.90;;;;;;5033951;28;20539;-62
2023/12/21 10:55:17;;;;;;;17.15;4.97;;;11.20;99.90;;;;;;5009398;28;20041;-61
2023/12/21 10:57:44;;;;;;;11.70;3.92;;;11.20;99.90;;;;;;5014529;28;20128;-61
2023/12/21 11:00:17;;;;;;;13.88;4.43;;;11.20;99.90;;;;;;5013679;28;20088;-62
2023/12/21 11:02:46;;;;;;;13.88;4.25;;;11.20;99.90;;;;;;5012905;28;20049;-61
2023/12/21 11:05:20;;;;;;;11.23;3.42;;;11.20;99.90;;;;;;5040274;28;20045;-61
2023/12/21 11:07:51;;;;;;;19.48;3.92;;;11.20;99.90;;;;;;5017361;28;20072;-62
2023/12/21 11:10:18;;;;;;;17.65;4.07;;;11.20;99.90;;;;;;5025997;28;20072;-62
2023/12/21 11:12:43;;;;;;;16.70;4.90;;;11.20;99.90;;;;;;5026091;28;20048;-62
2023/12/21 11:15:11;;;;;;;10.52;4.07;;;11.20;99.90;;;;;;5029583;28;20398;-61
2023/12/21 11:17:40;;;;;;;17.08;4.68;;;11.20;99.90;;;;;;5015189;28;20069;-61
2023/12/21 11:20:09;;;;;;;25.35;3.83;;;11.20;99.90;;;;;;5026780;28;20126;-61
2023/12/21 11:22:39;;;;;;;12.10;4.07;;;11.20;99.90;;;;;;5016286;28;20052;-62
2023/12/21 11:25:12;;;;;;;17.42;5.20;;;11.30;99.90;;;;;;5033979;28;20056;-61
2023/12/21 11:27:40;;;;;;;13.70;3.40;;;11.30;99.90;;;;;;5008051;28;20382;-61
2023/12/21 11:30:14;;;;;;;14.93;5.43;;;11.30;99.90;;;;;;5022238;28;20052;-61
2023/12/21 11:32:44;;;;;;;19.87;5.80;;;11.30;99.90;;;;;;5022495;28;20037;-61
2023/12/21 11:35:20;;;;;;;12.57;3.25;;;11.30;99.90;;;;;;5029912;28;20052;-61
2023/12/21 11:37:54;;;;;;;20.75;5.68;;;11.40;99.90;;;;;;5032070;28;20107;-62
2023/12/21 11:40:21;;;;;;;15.45;3.72;;;11.40;99.90;;;;;;5017410;28;20047;-61
2023/12/21 11:42:48;;;;;;;14.23;4.47;;;11.30;99.90;;;;;;5025436;28;20037;-62
2023/12/21 11:45:25;;;;;;;17.65;3.75;;;11.30;99.90;;;;;;5025531;28;20049;-62
2023/12/21 11:47:56;;;;;;;21.17;5.20;;;11.30;99.90;;;;;;5026594;28;20124;-61
2023/12/21 11:50:26;;;;;;;13.20;3.30;;;11.40;99.90;;;;;;5032658;28;20494;-62
2023/12/21 11:53:06;;;;;;;11.65;3.92;;;11.40;99.90;;;;;;5036591;28;20033;-62
2023/12/21 11:55:36;;;;;;;20.13;4.32;;;11.40;99.90;;;;;;5036910;28;20041;-62
2023/12/21 11:58:09;;;;;;;17.00;5.35;;;11.40;99.90;;;;;;5036748;28;20504;-62
2023/12/21 12:00:51;;;;;;;15.80;5.00;;;11.30;99.90;;;;;;5037270;28;20048;-62
2023/12/21 12:03:18;;;;;;;13.85;4.55;;;11.30;99.90;;;;;;5035781;28;20142;-62
2023/12/21 12:05:53;;;;;;;17.15;4.35;;;11.30;99.90;;;;;;5036998;28;20036;-62
2023/12/21 12:08:22;;;;;;;;;;;11.30;99.90;;;;;;5017717;28;20132;-60
2023/12/21 12:10:50;;;;;;;16.75;3.90;;;11.30;99.90;;;;;;5033348;28;19916;-59
2023/12/21 12:13:21;;;;;;;14.75;5.47;;;11.30;99.90;;;;;;5033102;28;20505;-60
2023/12/21 12:15:48;;;;;;;20.27;6.25;;;11.30;99.90;;;;;;5017204;28;20056;-60
2023/12/21 12:18:17;;;;;;;20.95;7.75;;;11.30;99.90;;;;;;5016219;28;20041;-60
2023/12/21 12:20:47;;;;;;;17.25;7.03;;;11.40;99.90;;;;;;5031139;28;20033;-60
2023/12/21 12:23:14;;;;;;;23.70;6.90;;;11.40;99.90;;;;;;5036717;28;20083;-59
2023/12/21 12:25:41;;;;;;;24.27;8.27;;;11.40;99.90;;;;;;5036163;28;20045;-60
2023/12/21 12:28:07;;;;;;;13.40;5.85;;;11.30;99.90;;;;;;5036745;28;20049;-59
2023/12/21 12:30:35;;;;;;;27.67;7.05;;;11.20;99.90;;;;;;5053044;28;20499;-60
2023/12/21 12:33:03;;;;;;;23.85;6.10;;;11.20;99.90;;;;;;5036293;28;20394;-60
2023/12/21 12:35:33;;;;;;;13.10;4.22;;;11.20;99.90;;;;;;5028314;28;20056;-60
2023/12/21 12:37:58;;;;;;;18.13;4.00;;;11.20;99.90;;;;;;5036402;28;20097;-60
2023/12/21 12:40:24;;;;;;;17.95;4.50;;;11.20;99.90;;;;;;5035580;28;20041;-60
2023/12/21 12:42:51;;;;;;;17.35;4.70;;;11.10;99.90;;;;;;5031835;28;20088;-60